sensor_id;sensor_type;location;lat;lon;timestamp;pressure;altitude;pressure_sealevel;temperature;humidity
55675;BME280;41562;44.330;23.802;2023-05-23T00:01:55;100065.16;;;17.86;91.20
55675;BME280;41562;44.330;23.802;2023-05-23T00:04:23;100063.94;;;17.75;90.45
55675;BME280;41562;44.330;23.802;2023-05-23T00:07:10;100062.66;;;17.73;89.62
55675;BME280;41562;44.330;23.802;2023-05-23T00:09:38;100060.91;;;17.77;90.91
55675;BME280;41562;44.330;23.802;2023-05-23T00:12:06;100061.34;;;17.87;88.03
55675;BME280;41562;44.330;23.802;2023-05-23T00:14:33;100052.25;;;17.92;86.99
55675;BME280;41562;44.330;23.802;2023-05-23T00:17:00;100047.66;;;17.92;85.12
55675;BME280;41562;44.330;23.802;2023-05-23T00:19:28;100045.56;;;17.98;84.10
55675;BME280;41562;44.330;23.802;2023-05-23T00:21:56;100041.22;;;18.05;83.40
55675;BME280;41562;44.330;23.802;2023-05-23T00:24:23;100038.34;;;18.11;82.62
55675;BME280;41562;44.330;23.802;2023-05-23T00:26:51;100034.50;;;18.12;80.45
55675;BME280;41562;44.330;23.802;2023-05-23T00:29:19;100031.00;;;18.11;78.52
55675;BME280;41562;44.330;23.802;2023-05-23T00:31:46;100012.47;;;18.22;79.71
55675;BME280;41562;44.330;23.802;2023-05-23T00:34:14;100010.44;;;18.19;79.05
55675;BME280;41562;44.330;23.802;2023-05-23T00:36:42;100007.72;;;18.19;81.02
55675;BME280;41562;44.330;23.802;2023-05-23T00:39:10;100013.94;;;18.19;80.90
55675;BME280;41562;44.330;23.802;2023-05-23T00:41:37;100013.16;;;18.19;80.50
55675;BME280;41562;44.330;23.802;2023-05-23T00:44:04;100013.50;;;18.08;82.41
55675;BME280;41562;44.330;23.802;2023-05-23T00:46:32;100028.97;;;18.08;80.11
55675;BME280;41562;44.330;23.802;2023-05-23T00:48:59;100020.34;;;18.15;80.39
55675;BME280;41562;44.330;23.802;2023-05-23T00:51:28;100015.19;;;18.22;80.00
55675;BME280;41562;44.330;23.802;2023-05-23T00:53:55;100011.16;;;18.28;80.20
55675;BME280;41562;44.330;23.802;2023-05-23T00:56:23;100007.72;;;18.19;81.02
55675;BME280;41562;44.330;23.802;2023-05-23T00:58:51;100021.81;;;18.03;82.22
55675;BME280;41562;44.330;23.802;2023-05-23T01:01:18;100020.88;;;17.99;83.14
55675;BME280;41562;44.330;23.802;2023-05-23T01:03:45;100017.28;;;17.87;85.16
55675;BME280;41562;44.330;23.802;2023-05-23T01:06:15;100016.84;;;17.76;85.44
55675;BME280;41562;44.330;23.802;2023-05-23T01:08:42;100022.88;;;17.73;85.11
55675;BME280;41562;44.330;23.802;2023-05-23T01:11:28;100025.13;;;17.71;86.10
55675;BME280;41562;44.330;23.802;2023-05-23T01:14:05;100026.88;;;17.58;88.10
55675;BME280;41562;44.330;23.802;2023-05-23T01:16:39;100022.91;;;17.56;89.46
55675;BME280;41562;44.330;23.802;2023-05-23T01:19:51;100021.69;;;17.45;90.97
55675;BME280;41562;44.330;23.802;2023-05-23T01:28:22;100017.56;;;17.21;96.09
55675;BME280;41562;44.330;23.802;2023-05-23T01:30:53;100015.69;;;17.13;96.74
55675;BME280;41562;44.330;23.802;2023-05-23T01:33:24;100021.91;;;17.05;97.21
55675;BME280;41562;44.330;23.802;2023-05-23T01:35:55;100013.28;;;16.95;98.34
55675;BME280;41562;44.330;23.802;2023-05-23T01:38:24;100010.91;;;16.76;100.00
55675;BME280;41562;44.330;23.802;2023-05-23T01:40:52;100007.28;;;16.72;100.00
55675;BME280;41562;44.330;23.802;2023-05-23T01:43:21;100009.03;;;16.68;100.00
55675;BME280;41562;44.330;23.802;2023-05-23T01:45:49;100003.56;;;16.50;100.00
55675;BME280;41562;44.330;23.802;2023-05-23T01:48:18;100007.69;;;16.39;100.00
55675;BME280;41562;44.330;23.802;2023-05-23T01:50:46;100010.06;;;16.41;100.00
55675;BME280;41562;44.330;23.802;2023-05-23T01:53:17;100004.47;;;16.20;100.00
55675;BME280;41562;44.330;23.802;2023-05-23T01:55:45;100003.19;;;16.18;100.00
55675;BME280;41562;44.330;23.802;2023-05-23T01:58:12;100003.78;;;16.06;100.00
55675;BME280;41562;44.330;23.802;2023-05-23T02:00:40;100003.47;;;15.99;100.00
55675;BME280;41562;44.330;23.802;2023-05-23T02:03:07;100006.88;;;15.82;100.00
55675;BME280;41562;44.330;23.802;2023-05-23T02:05:35;100005.69;;;15.66;100.00
55675;BME280;41562;44.330;23.802;2023-05-23T02:08:02;100006.28;;;15.54;100.00
55675;BME280;41562;44.330;23.802;2023-05-23T02:10:29;100003.59;;;15.54;100.00
55675;BME280;41562;44.330;23.802;2023-05-23T02:12:56;100015.00;;;15.38;100.00
55675;BME280;41562;44.330;23.802;2023-05-23T02:15:23;100006.47;;;15.36;100.00
55675;BME280;41562;44.330;23.802;2023-05-23T02:17:50;100012.38;;;15.24;100.00
55675;BME280;41562;44.330;23.802;2023-05-23T02:20:18;100022.50;;;15.18;100.00
55675;BME280;41562;44.330;23.802;2023-05-23T02:22:45;100023.97;;;15.02;100.00
55675;BME280;41562;44.330;23.802;2023-05-23T02:25:12;100019.50;;;14.98;100.00
55675;BME280;41562;44.330;23.802;2023-05-23T02:27:40;100027.34;;;15.08;100.00
55675;BME280;41562;44.330;23.802;2023-05-23T02:30:07;100028.31;;;15.12;100.00
55675;BME280;41562;44.330;23.802;2023-05-23T02:32:35;100032.59;;;14.91;100.00
55675;BME280;41562;44.330;23.802;2023-05-23T02:35:03;100025.31;;;14.91;100.00
55675;BME280;41562;44.330;23.802;2023-05-23T02:37:30;100030.75;;;15.00;100.00
55675;BME280;41562;44.330;23.802;2023-05-23T02:39:57;100033.03;;;14.84;100.00
55675;BME280;41562;44.330;23.802;2023-05-23T02:42:24;100034.41;;;14.81;100.00
55675;BME280;41562;44.330;23.802;2023-05-23T02:44:52;100035.91;;;14.74;100.00
55675;BME280;41562;44.330;23.802;2023-05-23T02:47:19;100036.06;;;14.55;100.00
55675;BME280;41562;44.330;23.802;2023-05-23T02:49:47;100033.47;;;14.50;100.00
55675;BME280;41562;44.330;23.802;2023-05-23T02:52:14;100036.28;;;14.45;100.00
55675;BME280;41562;44.330;23.802;2023-05-23T02:54:41;100031.41;;;14.47;100.00
55675;BME280;41562;44.330;23.802;2023-05-23T02:57:09;100031.19;;;14.43;100.00
55675;BME280;41562;44.330;23.802;2023-05-23T02:59:36;100031.03;;;14.40;100.00
55675;BME280;41562;44.330;23.802;2023-05-23T03:02:03;100037.53;;;14.61;100.00
55675;BME280;41562;44.330;23.802;2023-05-23T03:04:31;100040.16;;;14.53;100.00
55675;BME280;41562;44.330;23.802;2023-05-23T03:06:58;100044.63;;;14.57;100.00
55675;BME280;41562;44.330;23.802;2023-05-23T03:09:25;100045.34;;;14.49;100.00
55675;BME280;41562;44.330;23.802;2023-05-23T03:11:52;100046.25;;;14.44;100.00
55675;BME280;41562;44.330;23.802;2023-05-23T03:14:20;100048.66;;;14.46;100.00
55675;BME280;41562;44.330;23.802;2023-05-23T03:16:47;100052.13;;;14.46;100.00
55675;BME280;41562;44.330;23.802;2023-05-23T03:19:14;100045.44;;;14.44;100.00
55675;BME280;41562;44.330;23.802;2023-05-23T03:21:42;100044.38;;;14.81;100.00
55675;BME280;41562;44.330;23.802;2023-05-23T03:24:09;100047.78;;;16.72;100.00
55675;BME280;41562;44.330;23.802;2023-05-23T03:26:37;100059.56;;;17.10;96.32
55675;BME280;41562;44.330;23.802;2023-05-23T03:29:05;100063.63;;;17.68;94.23
55675;BME280;41562;44.330;23.802;2023-05-23T03:31:32;100059.13;;;17.89;91.30
55675;BME280;41562;44.330;23.802;2023-05-23T03:33:59;100060.28;;;17.45;93.93
55675;BME280;41562;44.330;23.802;2023-05-23T03:36:28;100070.34;;;17.10;95.37
55675;BME280;41562;44.330;23.802;2023-05-23T03:38:57;100067.81;;;17.05;96.79
55675;BME280;41562;44.330;23.802;2023-05-23T03:41:24;100072.88;;;17.50;95.02
55675;BME280;41562;44.330;23.802;2023-05-23T03:43:52;100075.19;;;17.86;94.40
55675;BME280;41562;44.330;23.802;2023-05-23T03:46:21;100068.69;;;17.78;95.38
55675;BME280;41562;44.330;23.802;2023-05-23T03:48:49;100074.50;;;17.97;95.65
55675;BME280;41562;44.330;23.802;2023-05-23T03:51:17;100072.06;;;17.66;93.77
55675;BME280;41562;44.330;23.802;2023-05-23T03:53:45;100061.75;;;16.65;97.10
55675;BME280;41562;44.330;23.802;2023-05-23T03:56:13;100060.13;;;16.56;98.36
55675;BME280;41562;44.330;23.802;2023-05-23T03:58:40;100064.38;;;16.57;98.41
55675;BME280;41562;44.330;23.802;2023-05-23T04:01:08;100072.25;;;16.84;96.02
55675;BME280;41562;44.330;23.802;2023-05-23T04:03:36;100066.78;;;16.58;97.21
55675;BME280;41562;44.330;23.802;2023-05-23T04:06:04;100069.47;;;16.58;97.03
55675;BME280;41562;44.330;23.802;2023-05-23T04:08:33;100074.72;;;16.55;97.38
55675;BME280;41562;44.330;23.802;2023-05-23T04:11:01;100070.78;;;16.69;97.74
55675;BME280;41562;44.330;23.802;2023-05-23T04:13:28;100069.38;;;16.89;95.86
55675;BME280;41562;44.330;23.802;2023-05-23T04:15:55;100075.13;;;17.13;94.85
55675;BME280;41562;44.330;23.802;2023-05-23T04:18:23;100067.16;;;16.74;97.04
55675;BME280;41562;44.330;23.802;2023-05-23T04:20:50;100068.03;;;16.04;100.00
55675;BME280;41562;44.330;23.802;2023-05-23T04:23:17;100059.63;;;15.75;100.00
55675;BME280;41562;44.330;23.802;2023-05-23T04:25:45;100067.50;;;15.40;100.00
55675;BME280;41562;44.330;23.802;2023-05-23T04:28:12;100059.66;;;15.08;100.00
55675;BME280;41562;44.330;23.802;2023-05-23T04:30:39;100068.88;;;14.93;100.00
55675;BME280;41562;44.330;23.802;2023-05-23T04:33:07;100063.19;;;14.95;100.00
55675;BME280;41562;44.330;23.802;2023-05-23T04:35:34;100058.09;;;14.93;100.00
55675;BME280;41562;44.330;23.802;2023-05-23T04:38:02;100060.16;;;15.10;100.00
55675;BME280;41562;44.330;23.802;2023-05-23T04:40:29;100061.69;;;15.02;100.00
55675;BME280;41562;44.330;23.802;2023-05-23T04:42:56;100059.34;;;15.09;100.00
55675;BME280;41562;44.330;23.802;2023-05-23T04:45:23;100070.19;;;15.18;100.00
55675;BME280;41562;44.330;23.802;2023-05-23T04:47:51;100068.63;;;15.17;100.00
55675;BME280;41562;44.330;23.802;2023-05-23T04:50:19;100064.78;;;15.18;100.00
55675;BME280;41562;44.330;23.802;2023-05-23T04:52:48;100066.00;;;15.12;100.00
55675;BME280;41562;44.330;23.802;2023-05-23T04:55:15;100064.38;;;15.24;100.00
55675;BME280;41562;44.330;23.802;2023-05-23T04:57:43;100073.16;;;15.30;100.00
55675;BME280;41562;44.330;23.802;2023-05-23T05:00:11;100065.59;;;15.41;100.00
55675;BME280;41562;44.330;23.802;2023-05-23T05:02:40;100074.97;;;15.43;100.00
55675;BME280;41562;44.330;23.802;2023-05-23T05:05:08;100076.13;;;15.51;100.00
55675;BME280;41562;44.330;23.802;2023-05-23T05:07:36;100066.84;;;15.57;100.00
55675;BME280;41562;44.330;23.802;2023-05-23T05:10:04;100071.25;;;15.53;100.00
55675;BME280;41562;44.330;23.802;2023-05-23T05:12:32;100068.00;;;15.64;100.00
55675;BME280;41562;44.330;23.802;2023-05-23T05:15:01;100073.75;;;15.72;100.00
55675;BME280;41562;44.330;23.802;2023-05-23T05:17:30;100072.06;;;15.84;100.00
55675;BME280;41562;44.330;23.802;2023-05-23T05:19:57;100073.13;;;15.75;100.00
55675;BME280;41562;44.330;23.802;2023-05-23T05:22:24;100067.72;;;15.75;100.00
55675;BME280;41562;44.330;23.802;2023-05-23T05:24:51;100076.75;;;15.70;100.00
55675;BME280;41562;44.330;23.802;2023-05-23T05:27:19;100068.38;;;15.72;100.00
55675;BME280;41562;44.330;23.802;2023-05-23T05:29:48;100076.41;;;15.94;100.00
55675;BME280;41562;44.330;23.802;2023-05-23T05:32:15;100082.13;;;16.01;100.00
55675;BME280;41562;44.330;23.802;2023-05-23T05:34:42;100075.41;;;16.21;100.00
55675;BME280;41562;44.330;23.802;2023-05-23T05:37:11;100076.06;;;16.26;100.00
55675;BME280;41562;44.330;23.802;2023-05-23T05:39:40;100077.22;;;16.42;100.00
55675;BME280;41562;44.330;23.802;2023-05-23T05:42:07;100066.94;;;16.53;100.00
55675;BME280;41562;44.330;23.802;2023-05-23T05:44:34;100083.66;;;16.64;100.00
55675;BME280;41562;44.330;23.802;2023-05-23T05:47:01;100076.97;;;16.70;100.00
55675;BME280;41562;44.330;23.802;2023-05-23T05:49:30;100081.16;;;16.93;100.00
55675;BME280;41562;44.330;23.802;2023-05-23T05:51:57;100083.06;;;17.10;100.00
55675;BME280;41562;44.330;23.802;2023-05-23T05:54:24;100086.56;;;17.27;100.00
55675;BME280;41562;44.330;23.802;2023-05-23T05:56:52;100094.34;;;17.38;100.00
55675;BME280;41562;44.330;23.802;2023-05-23T05:59:19;100085.75;;;17.70;100.00
55675;BME280;41562;44.330;23.802;2023-05-23T06:01:46;100082.63;;;17.97;100.00
55675;BME280;41562;44.330;23.802;2023-05-23T06:04:17;100088.09;;;18.27;99.19
55675;BME280;41562;44.330;23.802;2023-05-23T06:06:45;100083.44;;;18.65;96.95
55675;BME280;41562;44.330;23.802;2023-05-23T06:09:12;100080.38;;;18.75;96.92
55675;BME280;41562;44.330;23.802;2023-05-23T06:11:40;100086.44;;;18.93;95.92
55675;BME280;41562;44.330;23.802;2023-05-23T06:14:07;100089.50;;;19.33;94.32
55675;BME280;41562;44.330;23.802;2023-05-23T06:16:35;100091.78;;;19.43;93.19
55675;BME280;41562;44.330;23.802;2023-05-23T06:19:03;100092.16;;;19.54;91.90
55675;BME280;41562;44.330;23.802;2023-05-23T06:21:31;100087.72;;;19.70;92.25
55675;BME280;41562;44.330;23.802;2023-05-23T06:23:58;100094.72;;;19.71;90.68
55675;BME280;41562;44.330;23.802;2023-05-23T06:26:25;100090.63;;;20.10;88.78
55675;BME280;41562;44.330;23.802;2023-05-23T06:28:53;100093.44;;;20.01;88.48
55675;BME280;41562;44.330;23.802;2023-05-23T06:31:20;100096.16;;;20.14;88.75
55675;BME280;41562;44.330;23.802;2023-05-23T06:33:47;100088.47;;;20.03;90.00
55675;BME280;41562;44.330;23.802;2023-05-23T06:36:15;100098.41;;;20.24;89.06
55675;BME280;41562;44.330;23.802;2023-05-23T06:38:48;100088.59;;;20.31;88.43
55675;BME280;41562;44.330;23.802;2023-05-23T06:41:17;100084.78;;;20.44;88.28
55675;BME280;41562;44.330;23.802;2023-05-23T06:43:47;100090.66;;;20.59;87.67
55675;BME280;41562;44.330;23.802;2023-05-23T06:46:15;100084.53;;;20.37;84.60
55675;BME280;41562;44.330;23.802;2023-05-23T06:48:42;100082.63;;;20.50;84.59
55675;BME280;41562;44.330;23.802;2023-05-23T06:51:09;100081.34;;;20.84;85.21
55675;BME280;41562;44.330;23.802;2023-05-23T06:53:37;100080.84;;;20.94;85.94
55675;BME280;41562;44.330;23.802;2023-05-23T06:56:04;100080.13;;;21.09;84.37
55675;BME280;41562;44.330;23.802;2023-05-23T06:58:32;100069.56;;;21.20;83.38
55675;BME280;41562;44.330;23.802;2023-05-23T07:01:00;100072.56;;;21.58;82.26
55675;BME280;41562;44.330;23.802;2023-05-23T07:03:30;100070.44;;;21.36;81.30
55675;BME280;41562;44.330;23.802;2023-05-23T07:05:57;100068.53;;;21.52;81.70
55675;BME280;41562;44.330;23.802;2023-05-23T07:08:25;100072.97;;;21.45;78.23
55675;BME280;41562;44.330;23.802;2023-05-23T07:10:53;100073.56;;;21.66;79.90
55675;BME280;41562;44.330;23.802;2023-05-23T07:13:20;100068.84;;;21.94;78.79
55675;BME280;41562;44.330;23.802;2023-05-23T07:15:47;100063.00;;;22.24;76.12
55675;BME280;41562;44.330;23.802;2023-05-23T07:18:15;100066.19;;;22.45;73.65
55675;BME280;41562;44.330;23.802;2023-05-23T07:20:45;100062.84;;;22.52;73.71
55675;BME280;41562;44.330;23.802;2023-05-23T07:23:12;100061.31;;;22.70;75.52
55675;BME280;41562;44.330;23.802;2023-05-23T07:25:40;100059.47;;;22.58;75.66
55675;BME280;41562;44.330;23.802;2023-05-23T07:28:20;100052.41;;;22.89;74.98
55675;BME280;41562;44.330;23.802;2023-05-23T07:30:47;100049.59;;;23.04;69.79
55675;BME280;41562;44.330;23.802;2023-05-23T07:33:14;100045.16;;;23.15;71.20
55675;BME280;41562;44.330;23.802;2023-05-23T07:35:43;100046.88;;;23.23;71.39
55675;BME280;41562;44.330;23.802;2023-05-23T07:38:10;100054.91;;;23.36;70.47
55675;BME280;41562;44.330;23.802;2023-05-23T07:40:39;100048.44;;;23.24;66.86
55675;BME280;41562;44.330;23.802;2023-05-23T07:43:07;100049.66;;;23.27;68.16
55675;BME280;41562;44.330;23.802;2023-05-23T07:45:34;100048.91;;;23.27;67.69
55675;BME280;41562;44.330;23.802;2023-05-23T07:48:01;100040.56;;;23.19;70.29
55675;BME280;41562;44.330;23.802;2023-05-23T07:50:29;100042.47;;;23.38;69.58
55675;BME280;41562;44.330;23.802;2023-05-23T07:52:57;100041.59;;;23.34;67.93
55675;BME280;41562;44.330;23.802;2023-05-23T07:55:25;100036.81;;;23.47;67.23
55675;BME280;41562;44.330;23.802;2023-05-23T07:57:52;100040.75;;;23.49;69.17
55675;BME280;41562;44.330;23.802;2023-05-23T08:00:20;100046.34;;;23.56;68.47
55675;BME280;41562;44.330;23.802;2023-05-23T08:02:47;100046.66;;;23.74;66.91
55675;BME280;41562;44.330;23.802;2023-05-23T08:05:14;100042.34;;;23.73;67.18
55675;BME280;41562;44.330;23.802;2023-05-23T08:07:42;100038.66;;;23.85;65.05
55675;BME280;41562;44.330;23.802;2023-05-23T08:10:10;100037.50;;;23.86;64.21
55675;BME280;41562;44.330;23.802;2023-05-23T08:12:37;100041.19;;;23.97;67.32
55675;BME280;41562;44.330;23.802;2023-05-23T08:15:07;100034.66;;;23.79;67.72
55675;BME280;41562;44.330;23.802;2023-05-23T08:17:35;100033.19;;;23.85;70.17
55675;BME280;41562;44.330;23.802;2023-05-23T08:20:03;100034.34;;;24.07;69.63
55675;BME280;41562;44.330;23.802;2023-05-23T08:22:30;100029.97;;;24.02;68.95
55675;BME280;41562;44.330;23.802;2023-05-23T08:24:57;100038.19;;;24.02;69.69
55675;BME280;41562;44.330;23.802;2023-05-23T08:27:25;100035.16;;;24.11;68.88
55675;BME280;41562;44.330;23.802;2023-05-23T08:29:52;100035.72;;;23.97;70.38
55675;BME280;41562;44.330;23.802;2023-05-23T08:32:23;100030.06;;;23.83;72.14
55675;BME280;41562;44.330;23.802;2023-05-23T08:34:50;100028.59;;;23.89;71.55
55675;BME280;41562;44.330;23.802;2023-05-23T08:37:18;100022.78;;;24.17;72.30
55675;BME280;41562;44.330;23.802;2023-05-23T08:39:46;100018.44;;;24.38;71.48
55675;BME280;41562;44.330;23.802;2023-05-23T08:42:13;100025.53;;;24.43;72.08
55675;BME280;41562;44.330;23.802;2023-05-23T08:44:41;100017.50;;;24.27;67.90
55675;BME280;41562;44.330;23.802;2023-05-23T08:47:09;100021.63;;;24.40;68.74
55675;BME280;41562;44.330;23.802;2023-05-23T08:49:37;100020.91;;;24.47;68.99
55675;BME280;41562;44.330;23.802;2023-05-23T08:52:11;100013.09;;;24.46;67.80
55675;BME280;41562;44.330;23.802;2023-05-23T08:54:41;100010.13;;;24.58;65.72
55675;BME280;41562;44.330;23.802;2023-05-23T08:57:09;100012.19;;;24.68;67.38
55675;BME280;41562;44.330;23.802;2023-05-23T08:59:37;100021.75;;;24.81;63.66
55675;BME280;41562;44.330;23.802;2023-05-23T09:02:08;100015.84;;;24.79;64.91
55675;BME280;41562;44.330;23.802;2023-05-23T09:04:36;100008.31;;;24.99;64.37
55675;BME280;41562;44.330;23.802;2023-05-23T09:07:05;100014.75;;;25.13;65.66
55675;BME280;41562;44.330;23.802;2023-05-23T09:09:32;100012.56;;;25.30;66.64
55675;BME280;41562;44.330;23.802;2023-05-23T09:12:00;100008.66;;;25.27;65.54
55675;BME280;41562;44.330;23.802;2023-05-23T09:14:27;100004.84;;;25.39;68.16
55675;BME280;41562;44.330;23.802;2023-05-23T09:16:59;99997.53;;;25.13;64.09
55675;BME280;41562;44.330;23.802;2023-05-23T09:19:30;99994.44;;;25.14;65.83
55675;BME280;41562;44.330;23.802;2023-05-23T09:22:01;99988.59;;;24.86;64.96
55675;BME280;41562;44.330;23.802;2023-05-23T09:24:35;100002.13;;;25.05;60.60
55675;BME280;41562;44.330;23.802;2023-05-23T09:27:07;99989.34;;;24.83;60.59
55675;BME280;41562;44.330;23.802;2023-05-23T09:29:37;99990.31;;;24.98;63.01
55675;BME280;41562;44.330;23.802;2023-05-23T09:32:18;99988.00;;;25.00;62.90
55675;BME280;41562;44.330;23.802;2023-05-23T09:34:56;99986.88;;;25.04;60.17
55675;BME280;41562;44.330;23.802;2023-05-23T09:37:40;99987.38;;;25.13;59.87
55675;BME280;41562;44.330;23.802;2023-05-23T09:40:12;99994.50;;;25.21;56.76
55675;BME280;41562;44.330;23.802;2023-05-23T09:42:47;99984.13;;;25.04;53.57
55675;BME280;41562;44.330;23.802;2023-05-23T09:45:17;99983.94;;;25.20;54.98
55675;BME280;41562;44.330;23.802;2023-05-23T09:47:51;99977.59;;;25.12;55.29
55675;BME280;41562;44.330;23.802;2023-05-23T09:50:20;99982.34;;;25.19;54.98
55675;BME280;41562;44.330;23.802;2023-05-23T09:52:47;99977.31;;;25.24;53.56
55675;BME280;41562;44.330;23.802;2023-05-23T09:55:15;99981.97;;;25.20;55.14
55675;BME280;41562;44.330;23.802;2023-05-23T09:57:43;99978.81;;;25.18;53.63
55675;BME280;41562;44.330;23.802;2023-05-23T10:00:11;99969.47;;;25.19;53.39
55675;BME280;41562;44.330;23.802;2023-05-23T10:05:25;99965.66;;;25.31;55.99
55675;BME280;41562;44.330;23.802;2023-05-23T10:08:00;99973.44;;;25.26;54.79
55675;BME280;41562;44.330;23.802;2023-05-23T10:10:31;99967.88;;;25.18;54.52
55675;BME280;41562;44.330;23.802;2023-05-23T10:13:02;99961.34;;;24.93;55.34
55675;BME280;41562;44.330;23.802;2023-05-23T10:15:33;99957.50;;;24.98;55.26
55675;BME280;41562;44.330;23.802;2023-05-23T10:18:25;99953.66;;;25.06;56.71
55675;BME280;41562;44.330;23.802;2023-05-23T10:20:56;99954.44;;;25.03;56.64
55675;BME280;41562;44.330;23.802;2023-05-23T10:23:27;99951.78;;;24.80;58.07
55675;BME280;41562;44.330;23.802;2023-05-23T10:25:55;99950.47;;;24.97;58.50
55675;BME280;41562;44.330;23.802;2023-05-23T10:28:23;99942.63;;;24.95;57.56
55675;BME280;41562;44.330;23.802;2023-05-23T10:30:50;99950.78;;;24.92;57.07
55675;BME280;41562;44.330;23.802;2023-05-23T10:33:18;99946.69;;;25.08;57.27
55675;BME280;41562;44.330;23.802;2023-05-23T10:35:52;99941.75;;;25.24;56.21
55675;BME280;41562;44.330;23.802;2023-05-23T10:38:40;99932.53;;;25.03;55.33
55675;BME280;41562;44.330;23.802;2023-05-23T10:41:11;99933.00;;;25.08;56.23
55675;BME280;41562;44.330;23.802;2023-05-23T10:43:46;99933.28;;;25.40;56.34
55675;BME280;41562;44.330;23.802;2023-05-23T10:46:18;99936.91;;;25.55;58.21
55675;BME280;41562;44.330;23.802;2023-05-23T10:48:46;99924.00;;;25.52;55.87
55675;BME280;41562;44.330;23.802;2023-05-23T10:51:14;99929.69;;;25.33;55.49
55675;BME280;41562;44.330;23.802;2023-05-23T10:53:43;99928.31;;;25.53;56.34
55675;BME280;41562;44.330;23.802;2023-05-23T10:56:19;99924.00;;;25.55;54.26
55675;BME280;41562;44.330;23.802;2023-05-23T10:58:53;99918.88;;;25.47;55.15
55675;BME280;41562;44.330;23.802;2023-05-23T11:01:22;99919.25;;;25.05;55.09
55675;BME280;41562;44.330;23.802;2023-05-23T11:03:52;99917.19;;;24.91;55.32
55675;BME280;41562;44.330;23.802;2023-05-23T11:06:29;99912.25;;;25.04;55.49
55675;BME280;41562;44.330;23.802;2023-05-23T11:09:11;99917.88;;;25.21;56.85
55675;BME280;41562;44.330;23.802;2023-05-23T11:14:15;99912.72;;;25.57;57.08
55675;BME280;41562;44.330;23.802;2023-05-23T11:16:44;99908.53;;;25.30;55.19
55675;BME280;41562;44.330;23.802;2023-05-23T11:21:48;99900.81;;;25.42;56.46
55675;BME280;41562;44.330;23.802;2023-05-23T11:24:15;99898.59;;;25.55;57.44
55675;BME280;41562;44.330;23.802;2023-05-23T11:26:59;99900.88;;;25.46;54.33
55675;BME280;41562;44.330;23.802;2023-05-23T11:29:27;99907.16;;;25.50;55.15
55675;BME280;41562;44.330;23.802;2023-05-23T11:31:55;99897.00;;;25.50;55.51
55675;BME280;41562;44.330;23.802;2023-05-23T11:34:26;99896.25;;;25.53;54.33
55675;BME280;41562;44.330;23.802;2023-05-23T11:36:53;99889.13;;;25.45;56.09
55675;BME280;41562;44.330;23.802;2023-05-23T11:39:22;99883.72;;;25.56;54.92
55675;BME280;41562;44.330;23.802;2023-05-23T11:42:02;99885.66;;;25.52;54.31
55675;BME280;41562;44.330;23.802;2023-05-23T11:44:30;99889.06;;;25.38;54.50
55675;BME280;41562;44.330;23.802;2023-05-23T11:46:59;99881.94;;;25.27;53.17
55675;BME280;41562;44.330;23.802;2023-05-23T11:49:43;99885.31;;;25.09;57.19
55675;BME280;41562;44.330;23.802;2023-05-23T11:52:11;99885.59;;;24.97;57.43
55675;BME280;41562;44.330;23.802;2023-05-23T11:54:42;99876.63;;;24.67;57.71
55675;BME280;41562;44.330;23.802;2023-05-23T11:57:09;99873.28;;;24.47;56.99
55675;BME280;41562;44.330;23.802;2023-05-23T11:59:37;99870.72;;;24.28;57.35
55675;BME280;41562;44.330;23.802;2023-05-23T12:02:05;99871.03;;;24.53;59.12
55675;BME280;41562;44.330;23.802;2023-05-23T12:04:36;99869.38;;;24.81;56.35
55675;BME280;41562;44.330;23.802;2023-05-23T12:07:03;99870.78;;;25.05;57.38
55675;BME280;41562;44.330;23.802;2023-05-23T12:09:31;99871.06;;;24.60;56.49
55675;BME280;41562;44.330;23.802;2023-05-23T12:11:58;99871.13;;;24.63;57.65
55675;BME280;41562;44.330;23.802;2023-05-23T12:14:27;99857.91;;;24.69;57.61
55675;BME280;41562;44.330;23.802;2023-05-23T12:16:55;99853.22;;;24.69;57.66
55675;BME280;41562;44.330;23.802;2023-05-23T12:19:22;99852.69;;;24.57;55.58
55675;BME280;41562;44.330;23.802;2023-05-23T12:21:50;99834.59;;;24.82;55.48
55675;BME280;41562;44.330;23.802;2023-05-23T12:24:21;99843.78;;;25.00;54.45
55675;BME280;41562;44.330;23.802;2023-05-23T12:26:54;99838.16;;;25.27;55.15
55675;BME280;41562;44.330;23.802;2023-05-23T12:29:28;99845.69;;;25.44;56.14
55675;BME280;41562;44.330;23.802;2023-05-23T12:32:04;99833.47;;;25.31;56.07
55675;BME280;41562;44.330;23.802;2023-05-23T12:34:31;99835.16;;;25.46;53.54
55675;BME280;41562;44.330;23.802;2023-05-23T12:37:00;99838.31;;;25.48;54.33
55675;BME280;41562;44.330;23.802;2023-05-23T12:39:45;99832.47;;;25.53;53.93
55675;BME280;41562;44.330;23.802;2023-05-23T12:42:13;99824.16;;;25.39;56.58
55675;BME280;41562;44.330;23.802;2023-05-23T12:44:41;99821.91;;;25.51;55.33
55675;BME280;41562;44.330;23.802;2023-05-23T12:47:08;99820.25;;;25.40;56.23
55675;BME280;41562;44.330;23.802;2023-05-23T12:49:36;99819.84;;;25.38;55.29
55675;BME280;41562;44.330;23.802;2023-05-23T12:52:04;99817.94;;;24.94;56.54
55675;BME280;41562;44.330;23.802;2023-05-23T12:54:32;99813.63;;;24.56;53.08
55675;BME280;41562;44.330;23.802;2023-05-23T12:56:59;99813.78;;;24.70;54.67
55675;BME280;41562;44.330;23.802;2023-05-23T12:59:26;99814.41;;;24.94;54.94
55675;BME280;41562;44.330;23.802;2023-05-23T13:01:54;99816.00;;;24.98;53.09
55675;BME280;41562;44.330;23.802;2023-05-23T13:04:21;99807.50;;;25.10;54.63